createdAt,value
2022-09-12T00:00:51.125Z,12.13
2022-09-12T00:03:17.566Z,12.45
2022-09-12T00:05:45.735Z,13.43
2022-09-12T00:08:13.255Z,15.25
2022-09-12T00:10:41.156Z,13.57
2022-09-12T00:13:08.728Z,16.02
2022-09-12T00:15:43.753Z,11.93
2022-09-12T00:18:14.285Z,14.75
2022-09-12T00:20:45.966Z,13.50
2022-09-12T00:23:13.990Z,14.65
2022-09-12T00:25:44.651Z,14.48
2022-09-12T00:28:12.462Z,13.43
2022-09-12T00:30:48.882Z,14.13
2022-09-12T00:33:17.387Z,14.90
2022-09-12T00:38:12.291Z,14.93
2022-09-12T00:40:39.466Z,15.70
2022-09-12T00:43:06.159Z,14.90
2022-09-12T00:45:32.737Z,12.93
2022-09-12T00:48:03.499Z,14.98
2022-09-12T00:50:32.347Z,13.75
2022-09-12T00:53:04.215Z,14.88
2022-09-12T00:55:33.926Z,15.45
2022-09-12T00:58:08.468Z,12.95
2022-09-12T01:00:35.021Z,13.63
2022-09-12T01:03:07.773Z,13.75
2022-09-12T01:05:37.146Z,12.45
2022-09-12T01:08:05.115Z,16.38
2022-09-12T01:10:35.367Z,15.68
2022-09-12T01:13:04.969Z,14.07
2022-09-12T01:15:31.314Z,16.40
2022-09-12T01:18:19.274Z,15.57
2022-09-12T01:21:05.581Z,13.63
2022-09-12T01:24:07.885Z,13.23
2022-09-12T01:26:54.446Z,14.52
2022-09-12T01:29:56.647Z,13.82
2022-09-12T01:33:01.461Z,12.63
2022-09-12T01:35:42.989Z,14.50
2022-09-12T01:38:56.521Z,12.57
2022-09-12T01:41:37.621Z,13.05
2022-09-12T01:44:23.005Z,13.07
2022-09-12T01:47:05.652Z,16.95
2022-09-12T01:49:46.299Z,13.35
2022-09-12T01:52:57.160Z,14.73
2022-09-12T01:55:28.204Z,17.02
2022-09-12T01:58:09.638Z,16.45
2022-09-12T02:00:44.551Z,17.08
2022-09-12T02:03:16.590Z,14.80
2022-09-12T02:05:51.944Z,15.35
2022-09-12T02:08:23.087Z,16.10
2022-09-12T02:10:56.016Z,17.88
2022-09-12T02:13:31.319Z,18.33
2022-09-12T02:16:09.822Z,18.02
2022-09-12T02:18:40.253Z,20.83
2022-09-12T02:21:07.657Z,21.90
2022-09-12T02:23:38.135Z,18.80
2022-09-12T02:26:23.329Z,19.50
2022-09-12T02:28:50.246Z,18.38
2022-09-12T02:31:37.340Z,21.15
2022-09-12T02:34:14.951Z,17.98
2022-09-12T02:37:03.615Z,19.87
2022-09-12T02:39:29.967Z,18.45
2022-09-12T02:41:59.164Z,19.63
2022-09-12T02:44:27.992Z,20.45
2022-09-12T02:46:59.799Z,18.98
2022-09-12T02:49:26.140Z,20.17
2022-09-12T02:51:52.707Z,20.90
2022-09-12T02:54:20.959Z,21.08
2022-09-12T02:56:47.316Z,19.05
2022-09-12T02:59:18.582Z,18.55
2022-09-12T03:02:05.332Z,19.77
2022-09-12T03:05:01.603Z,18.98
2022-09-12T03:07:43.249Z,19.40
2022-09-12T03:10:25.436Z,16.95
2022-09-12T03:13:09.917Z,15.95
2022-09-12T03:16:00.956Z,17.35
2022-09-12T03:18:46.268Z,17.33
2022-09-12T03:21:26.928Z,18.33
2022-09-12T03:24:17.932Z,17.48
2022-09-12T03:26:59.494Z,15.77
2022-09-12T03:29:27.738Z,14.65
2022-09-12T03:31:57.725Z,18.33
2022-09-12T03:34:26.199Z,16.73
2022-09-12T03:39:24.224Z,20.15
2022-09-12T03:41:51.149Z,18.25
2022-09-12T03:44:18.201Z,19.00
2022-09-12T03:46:44.742Z,20.25
2022-09-12T03:49:11.379Z,19.98
2022-09-12T03:51:39.103Z,21.48
2022-09-12T03:54:05.662Z,18.70
2022-09-12T03:56:32.218Z,18.77
2022-09-12T03:58:58.533Z,21.70
2022-09-12T04:01:24.889Z,19.55
2022-09-12T04:03:52.468Z,21.33
2022-09-12T04:06:21.086Z,20.27
2022-09-12T04:11:18.224Z,21.55
2022-09-12T04:13:45.670Z,20.90
2022-09-12T04:16:14.024Z,21.43
2022-09-12T04:18:40.804Z,21.17
2022-09-12T04:21:10.607Z,20.58
2022-09-12T04:23:36.976Z,19.08
2022-09-12T04:26:06.424Z,18.42
2022-09-12T04:28:34.472Z,17.70
2022-09-12T04:31:06.822Z,17.27
2022-09-12T04:33:34.319Z,18.98
2022-09-12T04:36:14.331Z,17.00
2022-09-12T04:38:40.635Z,17.48
2022-09-12T04:41:14.452Z,16.98
2022-09-12T04:43:41.650Z,20.70
2022-09-12T04:46:10.136Z,20.05
2022-09-12T04:51:11.133Z,22.35
2022-09-12T04:53:37.952Z,19.55
2022-09-12T04:56:05.734Z,19.40
2022-09-12T04:58:33.226Z,21.55
2022-09-12T05:01:11.435Z,20.65
2022-09-12T05:03:39.508Z,19.08
2022-09-12T05:06:12.012Z,20.85
2022-09-12T05:08:38.467Z,20.75
2022-09-12T05:11:07.511Z,21.27
2022-09-12T05:13:34.673Z,22.58
2022-09-12T05:16:02.286Z,23.58
2022-09-12T05:18:30.844Z,20.53
2022-09-12T05:23:25.457Z,23.85
2022-09-12T05:25:53.569Z,24.98
2022-09-12T05:28:21.186Z,23.38
2022-09-12T05:30:47.846Z,28.50
2022-09-12T05:33:15.342Z,21.67
2022-09-12T05:35:41.695Z,24.40
2022-09-12T05:38:08.256Z,27.67
2022-09-12T05:40:34.571Z,27.17
2022-09-12T05:43:00.875Z,25.73
2022-09-12T05:45:27.271Z,25.27
2022-09-12T05:47:56.940Z,32.40
2022-09-12T05:50:23.295Z,28.67
2022-09-12T05:52:50.503Z,35.20
2022-09-12T05:55:17.088Z,25.15
2022-09-12T05:57:46.329Z,27.05
2022-09-12T06:00:14.871Z,26.45
2022-09-12T06:05:08.065Z,24.75
2022-09-12T06:07:35.743Z,32.22
2022-09-12T06:10:03.633Z,27.40
2022-09-12T06:12:30.196Z,35.05
2022-09-12T06:14:57.002Z,27.83
2022-09-12T06:17:23.341Z,34.95
2022-09-12T06:19:52.321Z,32.95
2022-09-12T06:22:19.188Z,27.33
2022-09-12T06:24:45.567Z,26.83
2022-09-12T06:27:11.866Z,30.85
2022-09-12T06:29:38.580Z,32.53
2022-09-12T06:32:05.178Z,29.08
2022-09-12T06:34:31.642Z,30.20
2022-09-12T06:36:57.979Z,33.05
2022-09-12T06:39:24.372Z,32.10
2022-09-12T06:41:52.324Z,33.50
2022-09-12T06:44:22.990Z,36.78
2022-09-12T06:46:49.809Z,35.65
2022-09-12T06:49:17.467Z,36.50
2022-09-12T06:51:44.382Z,35.97
2022-09-12T06:54:15.463Z,33.53
2022-09-12T06:56:41.845Z,36.97
2022-09-12T06:59:08.601Z,35.92
2022-09-12T07:01:34.952Z,40.13
2022-09-12T07:04:03.854Z,41.35
2022-09-12T07:06:35.734Z,40.60
2022-09-12T07:09:04.692Z,39.90
2022-09-12T07:11:37.163Z,40.10
2022-09-12T07:14:05.656Z,40.58
2022-09-12T07:19:01.086Z,50.17
2022-09-12T07:21:27.528Z,60.67
2022-09-12T07:24:00.290Z,60.30
2022-09-12T07:26:27.909Z,58.22
2022-09-12T07:29:07.964Z,46.87
2022-09-12T07:31:42.527Z,56.70
2022-09-12T07:34:08.832Z,51.70
2022-09-12T07:36:35.154Z,47.00
2022-09-12T07:39:02.233Z,50.47
2022-09-12T07:41:31.206Z,59.08
2022-09-12T07:43:59.265Z,54.67
2022-09-12T07:46:26.907Z,58.90
2022-09-12T07:48:54.528Z,60.22
2022-09-12T07:51:21.268Z,45.63
2022-09-12T07:53:49.129Z,50.65
2022-09-12T07:56:16.386Z,50.42
2022-09-12T07:58:43.770Z,47.13
2022-09-12T08:01:18.642Z,38.28
2022-09-12T08:03:47.932Z,51.13
2022-09-12T08:06:24.164Z,47.10
2022-09-12T08:08:52.223Z,51.03
2022-09-12T08:11:20.496Z,53.65
2022-09-12T08:13:50.572Z,46.03
2022-09-12T08:16:23.893Z,46.58
2022-09-12T08:18:50.713Z,36.45
2022-09-12T08:21:22.849Z,42.70
2022-09-12T08:24:01.408Z,47.90
2022-09-12T08:26:28.194Z,48.55
2022-09-12T08:28:54.757Z,45.22
2022-09-12T08:31:24.474Z,37.72
2022-09-12T08:33:51.655Z,36.50
2022-09-12T08:36:21.221Z,46.70
2022-09-12T08:38:49.995Z,44.00
2022-09-12T08:41:38.241Z,37.92
2022-09-12T08:46:57.213Z,38.60
2022-09-12T08:49:33.837Z,38.80
2022-09-12T08:52:07.759Z,38.53
2022-09-12T08:54:34.446Z,39.03
2022-09-12T08:57:05.631Z,36.63
2022-09-12T08:59:37.548Z,39.78
2022-09-12T09:02:14.140Z,29.65
2022-09-12T09:04:55.714Z,39.55
2022-09-12T09:08:00.478Z,36.40
2022-09-12T09:10:46.802Z,37.20
2022-09-12T09:14:05.030Z,34.90
2022-09-12T09:16:44.123Z,34.70
2022-09-12T09:19:21.571Z,33.17
2022-09-12T09:21:54.446Z,31.05
2022-09-12T09:24:37.951Z,33.45
2022-09-12T09:27:36.753Z,32.10
2022-09-12T09:29:58.242Z,31.88
2022-09-12T09:32:47.583Z,26.67
2022-09-12T09:35:29.272Z,25.13
2022-09-12T09:38:46.147Z,30.40
2022-09-12T09:41:38.075Z,27.23
2022-09-12T09:44:04.935Z,23.67
2022-09-12T09:46:32.503Z,25.33
2022-09-12T09:49:04.599Z,20.92
2022-09-12T09:51:37.700Z,21.85
2022-09-12T09:54:17.860Z,22.55
2022-09-12T09:56:44.978Z,21.27
2022-09-12T09:59:28.435Z,20.92
2022-09-12T10:01:57.584Z,20.17
2022-09-12T10:04:27.893Z,20.52
2022-09-12T10:06:57.668Z,20.05
2022-09-12T10:09:30.180Z,15.25
2022-09-12T10:11:57.261Z,14.60
2022-09-12T10:14:27.971Z,16.98
2022-09-12T10:16:54.429Z,15.68
2022-09-12T10:19:26.552Z,15.05
2022-09-12T10:21:55.931Z,11.23
2022-09-12T10:24:34.049Z,9.55
2022-09-12T10:27:15.878Z,14.25
2022-09-12T10:29:50.068Z,11.77
2022-09-12T10:32:31.100Z,11.68
2022-09-12T10:35:02.068Z,10.63
2022-09-12T10:37:34.762Z,14.45
2022-09-12T10:40:03.935Z,16.60
2022-09-12T10:42:47.627Z,10.63
2022-09-12T10:45:19.519Z,6.90
2022-09-12T10:47:46.437Z,9.52
2022-09-12T10:50:22.876Z,12.50
2022-09-12T10:52:49.742Z,7.93
2022-09-12T10:55:16.425Z,12.18
2022-09-12T10:57:51.782Z,11.95
2022-09-12T11:00:20.385Z,11.10
2022-09-12T11:03:16.399Z,12.23
2022-09-12T11:06:15.561Z,9.75
2022-09-12T11:08:55.482Z,15.45
2022-09-12T11:11:51.705Z,10.80
2022-09-12T11:14:34.074Z,6.32
2022-09-12T11:17:23.510Z,10.38
2022-09-12T11:20:02.588Z,7.38
2022-09-12T11:22:43.239Z,7.72
2022-09-12T11:25:23.702Z,8.57
2022-09-12T11:28:11.198Z,8.52
2022-09-12T11:31:02.984Z,7.10
2022-09-12T11:33:37.674Z,7.18
2022-09-12T11:36:27.335Z,7.38
2022-09-12T11:39:14.011Z,8.18
2022-09-12T11:41:48.371Z,7.73
2022-09-12T11:44:40.154Z,7.80
2022-09-12T11:47:13.944Z,8.43
2022-09-12T11:49:47.071Z,8.57
2022-09-12T11:52:25.053Z,9.88
2022-09-12T11:55:00.796Z,9.77
2022-09-12T11:57:55.759Z,9.73
2022-09-12T12:00:37.022Z,11.02
2022-09-12T12:03:14.561Z,8.65
2022-09-12T12:08:08.398Z,6.80
2022-09-12T12:10:41.730Z,5.95
2022-09-12T12:13:18.279Z,6.03
2022-09-12T12:15:57.602Z,6.30
2022-09-12T12:18:29.436Z,5.68
2022-09-12T12:21:15.841Z,7.38
2022-09-12T12:24:04.700Z,6.15
2022-09-12T12:26:57.557Z,7.85
2022-09-12T12:29:23.823Z,6.05
2022-09-12T12:31:59.379Z,9.07
2022-09-12T12:34:34.541Z,5.15
2022-09-12T12:37:29.785Z,7.47
2022-09-12T12:40:01.217Z,5.75
2022-09-12T12:42:34.161Z,8.05
2022-09-12T12:45:01.540Z,7.82
2022-09-12T12:47:39.288Z,7.13
2022-09-12T12:50:20.924Z,7.38
2022-09-12T12:52:55.031Z,5.88
2022-09-12T12:55:26.684Z,6.78
2022-09-12T12:57:55.456Z,7.47
2022-09-12T13:00:24.528Z,7.03
2022-09-12T13:03:06.092Z,5.18
2022-09-12T13:05:42.697Z,6.95
2022-09-12T13:08:26.410Z,8.07
2022-09-12T13:11:01.946Z,4.85
2022-09-12T13:13:34.146Z,6.85
2022-09-12T13:16:00.572Z,5.78
2022-09-12T13:18:40.919Z,6.32
2022-09-12T13:21:16.256Z,7.00
2022-09-12T13:23:44.144Z,6.38
2022-09-12T13:26:34.315Z,6.80
2022-09-12T13:29:21.859Z,5.72
2022-09-12T13:31:52.847Z,6.28
2022-09-12T13:34:24.218Z,5.20
2022-09-12T13:37:24.410Z,5.00
2022-09-12T13:40:05.425Z,6.13
2022-09-12T13:42:42.657Z,5.50
2022-09-12T13:45:12.456Z,6.25
2022-09-12T13:48:06.574Z,4.82
2022-09-12T13:50:52.161Z,6.43
2022-09-12T13:53:22.207Z,7.82
2022-09-12T13:55:53.466Z,7.40
2022-09-12T13:58:23.390Z,4.80
2022-09-12T14:01:12.973Z,4.68
2022-09-12T14:04:01.205Z,4.68
2022-09-12T14:06:28.510Z,7.63
2022-09-12T14:09:01.266Z,4.65
2022-09-12T14:11:29.764Z,6.47
2022-09-12T14:13:57.310Z,5.68
2022-09-12T14:16:27.235Z,6.55
2022-09-12T14:18:54.208Z,5.70
2022-09-12T14:21:33.861Z,4.63
2022-09-12T14:24:01.291Z,4.95
2022-09-12T14:26:32.355Z,7.10
2022-09-12T14:29:00.269Z,9.77
2022-09-12T14:31:32.212Z,7.22
2022-09-12T14:34:24.942Z,4.72
2022-09-12T14:36:56.101Z,3.38
2022-09-12T14:39:37.622Z,5.78
2022-09-12T14:42:07.139Z,4.90
2022-09-12T14:44:34.996Z,6.03
2022-09-12T14:47:13.224Z,4.68
2022-09-12T14:49:40.071Z,6.55
2022-09-12T14:52:21.411Z,5.93
2022-09-12T14:55:04.012Z,4.68
2022-09-12T14:57:33.543Z,5.95
2022-09-12T15:00:30.067Z,4.30
2022-09-12T15:03:23.667Z,7.72
2022-09-12T15:05:50.661Z,4.32
2022-09-12T15:08:17.129Z,5.68
2022-09-12T15:10:43.540Z,4.85
2022-09-12T15:13:09.803Z,4.55
2022-09-12T15:15:38.358Z,4.00
2022-09-12T15:18:06.753Z,5.82
2022-09-12T15:20:36.015Z,4.70
2022-09-12T15:23:02.416Z,5.32
2022-09-12T15:25:28.823Z,4.95
2022-09-12T15:27:55.996Z,4.45
2022-09-12T15:30:22.362Z,6.95
2022-09-12T15:32:48.882Z,3.70
2022-09-12T15:35:18.130Z,6.20
2022-09-12T15:37:45.087Z,6.03
2022-09-12T15:40:13.223Z,5.93
2022-09-12T15:42:40.314Z,7.10
2022-09-12T15:45:22.414Z,5.10
2022-09-12T15:47:48.768Z,5.22
2022-09-12T15:50:15.141Z,5.30
2022-09-12T15:52:41.811Z,8.13
2022-09-12T15:55:20.238Z,7.78
2022-09-12T15:57:46.747Z,5.38
2022-09-12T16:00:14.545Z,6.32
2022-09-12T16:05:14.943Z,5.97
2022-09-12T16:07:41.975Z,5.28
2022-09-12T16:10:13.427Z,6.80
2022-09-12T16:12:39.994Z,8.50
2022-09-12T16:15:06.599Z,6.47
2022-09-12T16:17:32.912Z,4.95
2022-09-12T16:19:59.322Z,4.97
2022-09-12T16:22:25.723Z,5.32
2022-09-12T16:24:52.059Z,5.03
2022-09-12T16:27:19.629Z,5.35
2022-09-12T16:29:46.207Z,6.30
2022-09-12T16:32:12.590Z,7.28
2022-09-12T16:34:38.994Z,8.13
2022-09-12T16:37:05.635Z,4.40
2022-09-12T16:39:31.939Z,4.78
2022-09-12T16:41:58.284Z,6.22
2022-09-12T16:44:24.599Z,6.80
2022-09-12T16:46:51.067Z,7.60
2022-09-12T16:49:17.467Z,5.07
2022-09-12T16:51:47.359Z,7.50
2022-09-12T16:54:15.566Z,7.53
2022-09-12T16:56:42.064Z,5.32
2022-09-12T16:59:11.996Z,4.65
2022-09-12T17:01:39.223Z,4.80
2022-09-12T17:04:06.642Z,5.85
2022-09-12T17:06:33.843Z,6.45
2022-09-12T17:09:01.558Z,7.53
2022-09-12T17:11:31.654Z,5.40
2022-09-12T17:14:07.420Z,4.97
2022-09-12T17:16:39.608Z,5.97
2022-09-12T17:19:06.920Z,4.82
2022-09-12T17:21:33.665Z,7.00
2022-09-12T17:24:00.026Z,5.10
2022-09-12T17:26:26.751Z,5.95
2022-09-12T17:28:53.310Z,6.18
2022-09-12T17:31:20.040Z,5.43
2022-09-12T17:33:46.661Z,7.10
2022-09-12T17:36:16.236Z,6.25
2022-09-12T17:38:45.144Z,5.18
2022-09-12T17:41:17.522Z,4.93
2022-09-12T17:43:53.088Z,5.78
2022-09-12T17:46:20.379Z,6.53
2022-09-12T17:48:54.538Z,3.97
2022-09-12T17:51:22.912Z,6.05
2022-09-12T17:53:49.362Z,6.90
2022-09-12T17:56:16.064Z,6.57
2022-09-12T17:58:42.561Z,4.97
2022-09-12T18:01:34.463Z,7.07
2022-09-12T18:04:01.294Z,7.65
2022-09-12T18:06:32.277Z,4.07
2022-09-12T18:09:03.846Z,5.60
2022-09-12T18:11:33.793Z,4.82
2022-09-12T18:14:01.055Z,4.13
2022-09-12T18:16:31.437Z,13.45
2022-09-12T18:19:01.422Z,6.88
2022-09-12T18:21:29.185Z,5.88
2022-09-12T18:23:59.213Z,5.85
2022-09-12T18:26:27.745Z,6.00
2022-09-12T18:28:54.538Z,4.70
2022-09-12T18:31:24.063Z,7.18
2022-09-12T18:33:50.963Z,8.15
2022-09-12T18:36:18.444Z,6.70
2022-09-12T18:38:45.305Z,5.40
2022-09-12T18:41:14.558Z,3.92
2022-09-12T18:43:41.251Z,4.85
2022-09-12T18:46:10.681Z,8.10
2022-09-12T18:48:37.285Z,5.75
2022-09-12T18:51:07.910Z,5.72
2022-09-12T18:53:36.983Z,5.03
2022-09-12T18:56:08.538Z,6.88
2022-09-12T18:58:40.591Z,9.13
2022-09-12T19:01:13.160Z,7.22
2022-09-12T19:03:41.377Z,5.20
2022-09-12T19:08:38.825Z,9.25
2022-09-12T19:11:06.349Z,7.10
2022-09-12T19:13:39.416Z,8.93
2022-09-12T19:16:11.112Z,5.57
2022-09-12T19:18:38.785Z,7.18
2022-09-12T19:21:05.907Z,6.53
2022-09-12T19:23:34.003Z,6.50
2022-09-12T19:26:03.479Z,5.45
2022-09-12T19:28:30.750Z,7.47
2022-09-12T19:30:57.736Z,6.67
2022-09-12T19:33:24.366Z,7.28
2022-09-12T19:35:50.887Z,6.53
2022-09-12T19:38:17.968Z,6.82
2022-09-12T19:40:44.861Z,8.35
2022-09-12T19:43:11.634Z,6.15
2022-09-12T19:45:38.046Z,6.38
2022-09-12T19:48:04.370Z,5.65
2022-09-12T19:50:33.535Z,6.72
2022-09-12T19:52:59.983Z,9.27
2022-09-12T19:55:26.376Z,7.53
2022-09-12T19:57:53.765Z,8.07
2022-09-12T20:00:20.167Z,8.82
2022-09-12T20:02:50.414Z,7.15
2022-09-12T20:05:16.815Z,6.57
2022-09-12T20:07:43.401Z,8.10
2022-09-12T20:10:09.844Z,7.05
2022-09-12T20:12:36.142Z,6.53
2022-09-12T20:15:02.931Z,10.43
2022-09-12T20:17:29.318Z,9.75
2022-09-12T20:19:55.711Z,8.05
2022-09-12T20:22:22.074Z,6.95
2022-09-12T20:24:49.123Z,9.02
2022-09-12T20:27:15.436Z,8.25
2022-09-12T20:29:41.831Z,7.75
2022-09-12T20:32:08.811Z,8.90
2022-09-12T20:34:35.115Z,6.05
2022-09-12T20:37:01.754Z,7.05
2022-09-12T20:39:28.182Z,7.30
2022-09-12T20:41:54.523Z,6.30
2022-09-12T20:44:21.012Z,7.65
2022-09-12T20:46:47.358Z,8.52
2022-09-12T20:49:13.715Z,7.90
2022-09-12T20:51:40.074Z,8.15
2022-09-12T20:54:07.275Z,7.07
2022-09-12T20:56:36.353Z,10.13
2022-09-12T20:59:04.134Z,9.05
2022-09-12T21:01:31.601Z,6.20
2022-09-12T21:04:00.828Z,9.98
2022-09-12T21:06:28.140Z,7.63
2022-09-12T21:08:58.221Z,9.10
2022-09-12T21:11:24.529Z,8.18
2022-09-12T21:13:51.919Z,7.55
2022-09-12T21:16:20.353Z,8.40
2022-09-12T21:18:52.046Z,9.30
2022-09-12T21:21:18.380Z,12.27
2022-09-12T21:23:44.747Z,14.00
2022-09-12T21:26:12.128Z,8.48
2022-09-12T21:28:38.681Z,7.97
2022-09-12T21:31:05.601Z,6.97
2022-09-12T21:33:32.123Z,8.05
2022-09-12T21:36:05.704Z,10.80
2022-09-12T21:38:32.963Z,6.63
2022-09-12T21:41:11.117Z,9.00
2022-09-12T21:46:05.428Z,11.27
2022-09-12T21:48:32.391Z,7.85
2022-09-12T21:50:59.564Z,9.18
2022-09-12T21:53:25.952Z,8.52
2022-09-12T21:55:52.260Z,8.60
2022-09-12T21:58:19.414Z,7.90
2022-09-12T22:00:45.880Z,8.18
2022-09-12T22:03:12.600Z,8.13
2022-09-12T22:05:42.623Z,8.02
2022-09-12T22:08:10.523Z,9.00
2022-09-12T22:10:38.358Z,8.82
2022-09-12T22:13:05.401Z,9.60
2022-09-12T22:15:40.901Z,7.53
2022-09-12T22:18:07.688Z,10.32
2022-09-12T22:20:33.987Z,9.15
2022-09-12T22:23:23.833Z,10.02
2022-09-12T22:25:54.167Z,10.02
2022-09-12T22:28:21.376Z,8.95
2022-09-12T22:30:48.495Z,10.52
2022-09-12T22:33:14.848Z,9.82
2022-09-12T22:35:42.352Z,10.05
2022-09-12T22:38:08.995Z,8.93
2022-09-12T22:40:35.350Z,9.85
2022-09-12T22:43:01.787Z,9.05
2022-09-12T22:45:28.405Z,8.65
2022-09-12T22:47:56.384Z,10.73
2022-09-12T22:50:25.609Z,12.10
2022-09-12T22:52:52.651Z,8.98
2022-09-12T22:55:19.028Z,8.60
2022-09-12T22:57:45.412Z,9.20
2022-09-12T23:00:12.316Z,8.52
2022-09-12T23:02:38.652Z,8.20
2022-09-12T23:05:06.278Z,8.32
2022-09-12T23:07:33.050Z,8.73
2022-09-12T23:09:59.405Z,7.95
2022-09-12T23:12:25.893Z,8.90
2022-09-12T23:14:52.231Z,10.02
2022-09-12T23:17:18.601Z,11.07
2022-09-12T23:19:45.384Z,7.80
2022-09-12T23:22:11.713Z,9.88
2022-09-12T23:24:38.278Z,9.43
2022-09-12T23:27:05.168Z,8.45
2022-09-12T23:29:34.291Z,12.70
2022-09-12T23:32:01.782Z,10.25
2022-09-12T23:34:28.184Z,8.00
2022-09-12T23:36:56.327Z,13.90
2022-09-12T23:39:25.721Z,8.80
2022-09-12T23:41:52.261Z,8.82
2022-09-12T23:44:18.631Z,10.98
2022-09-12T23:46:44.956Z,10.57
2022-09-12T23:49:11.353Z,9.68
2022-09-12T23:51:37.673Z,9.82
2022-09-12T23:54:04.335Z,10.52
2022-09-12T23:56:30.992Z,12.35
2022-09-12T23:58:57.331Z,9.95
